Terminal Aerodrome Forecast
Issued by NWS

Home | Current Version | Previous Version | Text Only | Print | Product List | Glossary On
Versions: 1 2 3 4 5 6 7 8 9 10 11 12 13 14 15 16 17 18 19 20 21 22 23 24 25 26 27 28 29 30 31 32 33
724
FTUS41 KOKX 162033 AAA
TAFGON
TAF AMD
KGON 162033Z 1621/1718 28012KT P6SM VCSH SCT025 BKN035
     FM162300 29012KT P6SM FEW025 SCT035
     FM170300 32011KT P6SM FEW035
     FM171100 33007KT P6SM FEW035=

USA.gov is the U.S. government's official web portal to all federal, state and local government web resources and services.